Etretat — FIDP — position and weather

sailwx.info

Track history (hours):
 
Tides and Currents Weather Stations Pressure Air Temp Water Temp Dewpoint Dewpoint Depression Visibility Wind Speed Wind Dir Waves Ship Positions

Etretat

Last reported at 2016-Dec-05 10:33 UTC. Time now 2016-Dec-05 10:36 UTC.
Position N 49°29' E 000°07'.

Length 187 m; draft 6 m.

Type: Ship. MMSI: 228022900.

Date/timePositionNaut miles runAvg speedWind from/ knotsBaromVisibWave heightAir tempDewpointWater temp
2016-Dec-05 10:33N 49°29' E 000°07'0 0.0
2016-Dec-05 09:33N 49°29' E 000°07'0 0.0
2016-Dec-05 08:33N 49°29' E 000°07'0 0.0
2016-Dec-05 07:33N 49°29' E 000°07'9 9.2
2016-Dec-05 06:34N 49°36' W 000°03'3 3.4
2016-Dec-05 05:33N 49°39' W 000°03'10 9.7
2016-Dec-05 04:33N 49°47' W 000°11'1515.2
2016-Dec-05 03:33N 50°02' W 000°17'3115.3
2016-Dec-05 01:33N 50°27' W 000°45'1515.1
2016-Dec-05 00:33N 50°40' W 000°57'1010.4
2016-Dec-04 23:33N 50°49' W 001°06'0 0.1
2016-Dec-04 22:34N 50°49' W 001°06'1 0.7
2016-Dec-04 21:33N 50°48' W 001°07'9 9.0
2016-Dec-04 20:33N 50°42' W 000°58'1816.8
2016-Dec-04 19:28N 50°25' W 000°44'1819.3
2016-Dec-04 18:33N 50°10' W 000°30'1919.4
2016-Dec-04 17:33N 49°53' W 000°16'1919.3
2016-Dec-04 16:34N 49°36' W 000°03'9 9.3
2016-Dec-04 15:33N 49°29' E 000°07'0 0.0
2016-Dec-04 14:33N 49°29' E 000°07'0 0.0
2016-Dec-04 13:33N 49°29' E 000°07'0 0.0
2016-Dec-04 12:33N 49°29' E 000°07'0 0.0
2016-Dec-04 11:33N 49°29' E 000°07'0 0.0
2016-Dec-04 10:33N 49°29' E 000°07'0 0.0
2016-Dec-04 09:34N 49°29' E 000°07'0 0.0
2016-Dec-04 08:34N 49°29' E 000°07'0 0.0
2016-Dec-04 07:34N 49°29' E 000°07'9 8.6
2016-Dec-04 06:34N 49°36' W 000°02'4 4.5
2016-Dec-04 05:34N 49°40' W 000°03'10 9.6
2016-Dec-04 04:33N 49°47' W 000°13'1413.7
2016-Dec-04 03:33N 49°59' W 000°25'3314.0
2016-Dec-04 01:10N 50°28' W 000°48'914.6
2016-Dec-04 00:33N 50°37' W 000°54'1313.0
2016-Dec-03 23:34N 50°47' W 001°06'2 1.8
2016-Dec-03 22:34N 50°49' W 001°06'0 0.0
2016-Dec-03 21:33N 50°49' W 001°06'7 7.2
2016-Dec-03 20:33N 50°43' W 000°59'2019.2
2016-Dec-03 19:33N 50°26' W 000°43'2019.8
2016-Dec-03 18:33N 50°08' W 000°33'2020.5
2016-Dec-03 17:33N 49°50' W 000°17'2120.7
2016-Dec-03 16:33N 49°32' W 000°01'6 5.7
2016-Dec-03 15:33N 49°29' E 000°07'0 0.0
2016-Dec-03 14:33N 49°29' E 000°07'0 0.0
2016-Dec-03 13:33N 49°29' E 000°07'0 0.0
2016-Dec-03 12:33N 49°29' E 000°07'0 0.0
2016-Dec-03 11:33N 49°29' E 000°07'0 0.0
2016-Dec-03 10:33N 49°29' E 000°07'0 0.0
2016-Dec-03 09:33N 49°29' E 000°07'0 0.0
2016-Dec-03 08:33N 49°29' E 000°07'0 0.0
2016-Dec-03 07:33N 49°29' E 000°07'8 8.5
2016-Dec-03 06:33N 49°35' W 000°02'5 4.6
2016-Dec-03 05:33N 49°40' W 000°03'8 8.3
2016-Dec-03 04:33N 49°45' W 000°14'1515.0
2016-Dec-03 03:33N 49°58' W 000°24'3414.7
2016-Dec-03 01:14N 50°29' W 000°48'1015.0
2016-Dec-03 00:33N 50°38' W 000°55'1212.4
2016-Dec-02 23:34N 50°48' W 001°07'1 1.2
2016-Dec-02 22:33N 50°49' W 001°06'0 0.0
2016-Dec-02 21:33N 50°49' W 001°06'6 6.4
2016-Dec-02 20:34N 50°43' W 001°01'2018.9
2016-Dec-02 19:29N 50°25' W 000°46'1920.6
2016-Dec-02 18:33N 50°08' W 000°32'2020.4
2016-Dec-02 17:33N 49°50' W 000°19'2020.0
2016-Dec-02 16:33N 49°33' W 000°02'7 6.8
2016-Dec-02 15:33N 49°29' E 000°07'0 0.0
2016-Dec-02 14:33N 49°29' E 000°07'0 0.0
2016-Dec-02 13:33N 49°29' E 000°07'0 0.0
2016-Dec-02 12:33N 49°29' E 000°07'0 0.0
2016-Dec-02 11:33N 49°29' E 000°07'0 0.0
2016-Dec-02 10:33N 49°29' E 000°07'0 0.0
2016-Dec-02 09:33N 49°29' E 000°07'0 0.0
2016-Dec-02 08:33N 49°29' E 000°07'0 0.0
2016-Dec-02 07:33N 49°29' E 000°07'9 8.8
2016-Dec-02 06:34N 49°35' W 000°03'6 6.2
2016-Dec-02 05:34N 49°41' W 000°06'1212.2
2016-Dec-02 04:33N 49°51' W 000°18'1414.4
2016-Dec-02 03:33N 50°03' W 000°31'1813.9
2016-Dec-02 02:17N 50°17' W 000°46'1115.0
2016-Dec-02 01:34N 50°28' W 000°49'1414.2
2016-Dec-02 00:33N 50°41' W 000°58'9 9.2
2016-Dec-01 23:33N 50°49' W 001°06'0 0.2
2016-Dec-01 22:33N 50°49' W 001°06'0 0.0
2016-Dec-01 21:33N 50°49' W 001°06'8 7.8
2016-Dec-01 20:33N 50°42' W 000°58'2019.4
2016-Dec-01 19:32N 50°25' W 000°43'2020.3
2016-Dec-01 18:32N 50°07' W 000°28'2120.9
2016-Dec-01 17:34N 49°49' W 000°14'2120.7
2016-Dec-01 16:34N 49°31' E 000°01'4 3.9
2016-Dec-01 15:33N 49°29' E 000°07'0 0.0
2016-Dec-01 14:33N 49°29' E 000°07'0 0.0
2016-Dec-01 13:33N 49°29' E 000°07'0 0.0
2016-Dec-01 12:33N 49°29' E 000°07'0 0.0
2016-Dec-01 11:33N 49°29' E 000°07'0 0.0
2016-Dec-01 10:34N 49°29' E 000°07'0 0.0
2016-Dec-01 09:33N 49°29' E 000°07'0 0.0
2016-Dec-01 08:33N 49°29' E 000°07'0 0.0
2016-Dec-01 07:33N 49°29' E 000°07'8 8.5
2016-Dec-01 06:33N 49°36' W 000°01'1111.1
2016-Dec-01 05:33N 49°45' W 000°11'1110.9
2016-Dec-01 04:34N 49°55' W 000°17'1514.8
2016-Dec-01 03:33N 50°08' W 000°30'1514.9
2016-Dec-01 02:33N 50°21' W 000°42'1515.0
2016-Dec-01 01:34N 50°34' W 000°52'1413.5
2016-Dec-01 00:33N 50°45' W 001°05'4 4.1
2016-Nov-30 23:33N 50°49' W 001°06'0 0.0
2016-Nov-30 22:33N 50°49' W 001°06'0 0.0
2016-Nov-30 21:34N 50°49' W 001°06'8 7.7
2016-Nov-30 20:33N 50°43' W 000°59'1919.2
2016-Nov-30 19:34N 50°26' W 000°43'2120.7
2016-Nov-30 18:33N 50°08' W 000°27'2121.4
2016-Nov-30 17:33N 49°49' W 000°13'2120.9
2016-Nov-30 16:34N 49°30' E 000°01'4 3.6
2016-Nov-30 15:33N 49°29' E 000°07'0 0.0
2016-Nov-30 14:33N 49°29' E 000°07'0 0.0
2016-Nov-30 13:33N 49°29' E 000°07'0 0.0
2016-Nov-30 12:33N 49°29' E 000°07'0 0.0
2016-Nov-30 11:33N 49°29' E 000°07'0 0.0
2016-Nov-30 10:33N 49°29' E 000°07'0 0.0
2016-Nov-30 09:33N 49°29' E 000°07'0 0.0
2016-Nov-30 08:33N 49°29' E 000°07'0 0.0
2016-Nov-30 07:33N 49°29' E 000°07'8 8.1
2016-Nov-30 06:33N 49°35' W 000°02'7 6.6
2016-Nov-30 05:33N 49°40' W 000°08'6 6.4
2016-Nov-30 04:34N 49°46' W 000°11'1616.1
2016-Nov-30 03:33N 50°01' W 000°22'1615.6
2016-Nov-30 02:34N 50°14' W 000°35'1615.7
2016-Nov-30 01:33N 50°28' W 000°48'1515.5
2016-Nov-30 00:34N 50°42' W 000°58'9 8.8
2016-Nov-29 23:33N 50°49' W 001°06'0 0.1
2016-Nov-29 22:34N 50°49' W 001°06'0 0.0
2016-Nov-29 21:33N 50°49' W 001°06'6 6.3
2016-Nov-29 20:33N 50°43' W 001°01'2019.7
2016-Nov-29 19:33N 50°25' W 000°48'2121.0
2016-Nov-29 18:33N 50°06' W 000°34'2121.3
2016-Nov-29 17:33N 49°49' W 000°16'2020.5
2016-Nov-29 16:33N 49°31' E 000°01'4 4.4
2016-Nov-29 15:33N 49°29' E 000°07'0 0.0
2016-Nov-29 14:33N 49°29' E 000°07'0 0.0
2016-Nov-29 13:33N 49°29' E 000°07'0 0.0
2016-Nov-29 12:33N 49°29' E 000°07'0 0.0
2016-Nov-29 11:33N 49°29' E 000°07'0 0.0
2016-Nov-29 10:33N 49°29' E 000°07'0 0.0
2016-Nov-29 09:33N 49°29' E 000°07'0 0.0
2016-Nov-29 08:33N 49°29' E 000°07'0 0.0
2016-Nov-29 07:33N 49°29' E 000°07'8 8.5
2016-Nov-29 06:33N 49°34' W 000°04'1313.3
2016-Nov-29 05:33N 49°46' W 000°13'1413.6
2016-Nov-29 04:33N 49°58' W 000°22'1413.8
2016-Nov-29 03:33N 50°10' W 000°32'2014.0
2016-Nov-29 02:08N 50°28' W 000°47'814.0
2016-Nov-29 01:33N 50°35' W 000°53'1212.0
2016-Nov-29 00:33N 50°44' W 001°05'4 4.3
2016-Nov-28 23:33N 50°49' W 001°06'0 0.0
2016-Nov-28 22:33N 50°49' W 001°06'0 0.0
2016-Nov-28 21:33N 50°49' W 001°06'7 6.6
2016-Nov-28 20:33N 50°43' W 001°01'2019.9
2016-Nov-28 19:33N 50°25' W 000°48'2120.4
2016-Nov-28 18:32N 50°08' W 000°29'2020.6
2016-Nov-28 17:33N 49°50' W 000°14'2120.7
2016-Nov-28 16:33N 49°31' E 000°00'5 5.0
2016-Nov-28 15:33N 49°29' E 000°07'0 0.0
2016-Nov-28 14:33N 49°29' E 000°07'0 0.0
2016-Nov-28 13:33N 49°29' E 000°07'0 0.0
2016-Nov-28 12:33N 49°29' E 000°07'0 0.0
2016-Nov-28 11:33N 49°29' E 000°07'0 0.0
2016-Nov-28 10:33N 49°29' E 000°07'0 0.0
2016-Nov-28 09:33N 49°29' E 000°07'0 0.0
2016-Nov-28 08:33N 49°29' E 000°07'0 0.0
2016-Nov-28 07:33N 49°29' E 000°07'8 7.9
2016-Nov-28 06:34N 49°34' W 000°03'1110.9
2016-Nov-28 05:33N 49°44' W 000°10'1111.3
2016-Nov-28 04:33N 49°54' W 000°19'1110.9
2016-Nov-28 03:33N 50°03' W 000°28'2814.2
2016-Nov-28 01:33N 50°28' W 000°49'1414.4
2016-Nov-28 00:33N 50°41' W 000°57'9 8.6
2016-Nov-27 23:33N 50°47' W 001°07'1 1.3
2016-Nov-27 22:33N 50°49' W 001°06'0 0.1
2016-Nov-27 21:33N 50°49' W 001°06'7 6.7
2016-Nov-27 20:33N 50°43' W 001°00'4019.3
2016-Nov-27 18:29N 50°08' W 000°30'1819.7
2016-Nov-27 17:34N 49°52' W 000°17'2020.0
2016-Nov-27 16:33N 49°34' W 000°02'8 7.7
2016-Nov-27 15:33N 49°29' E 000°07'0 0.0
2016-Nov-27 14:33N 49°29' E 000°07'0 0.0
2016-Nov-27 13:33N 49°29' E 000°07'0 0.0
2016-Nov-27 12:33N 49°29' E 000°07'0 0.0
2016-Nov-27 11:33N 49°29' E 000°07'0 0.0
2016-Nov-27 10:33N 49°29' E 000°07'0 0.0
2016-Nov-27 09:33N 49°29' E 000°07'0 0.0
2016-Nov-27 08:33N 49°29' E 000°07'0 0.0
2016-Nov-27 07:33N 49°29' E 000°07'9 8.7
2016-Nov-27 06:33N 49°35' W 000°03'1414.4
2016-Nov-27 05:33N 49°48' W 000°14'1514.7
2016-Nov-27 04:33N 49°59' W 000°28'1414.4
2016-Nov-27 03:33N 50°11' W 000°41'1914.1
2016-Nov-27 02:12N 50°29' W 000°50'914.2
2016-Nov-27 01:34N 50°38' W 000°55'1212.3
2016-Nov-27 00:33N 50°48' W 001°07'1 1.2
2016-Nov-26 23:34N 50°49' W 001°06'0 0.0
2016-Nov-26 22:34N 50°49' W 001°06'0 0.0
2016-Nov-26 21:33N 50°49' W 001°06'5 4.9
2016-Nov-26 20:34N 50°44' W 001°03'2321.0
2016-Nov-26 19:27N 50°25' W 000°41'1920.3
2016-Nov-26 18:29N 50°08' W 000°27'1920.4
2016-Nov-26 17:34N 49°51' W 000°14'2120.6
2016-Nov-26 16:34N 49°32' W 000°01'6 5.7
2016-Nov-26 15:33N 49°29' E 000°07'0 0.0
2016-Nov-26 14:33N 49°29' E 000°07'0 0.0
2016-Nov-26 13:33N 49°29' E 000°07'0 0.0
2016-Nov-26 12:33N 49°29' E 000°07'0 0.0
2016-Nov-26 11:33N 49°29' E 000°07'0 0.0
2016-Nov-26 10:33N 49°29' E 000°07'0 0.0
2016-Nov-26 09:33N 49°29' E 000°07'0 0.0
2016-Nov-26 08:33N 49°29' E 000°07'0 0.0
2016-Nov-26 07:33N 49°29' E 000°07'8 8.5
2016-Nov-26 06:33N 49°35' W 000°03'1313.2
2016-Nov-26 05:33N 49°47' W 000°12'1413.9
2016-Nov-26 04:33N 49°58' W 000°23'1413.5
2016-Nov-26 03:33N 50°10' W 000°35'2013.4
2016-Nov-26 02:05N 50°28' W 000°47'713.6
2016-Nov-26 01:33N 50°34' W 000°52'1313.0
2016-Nov-26 00:34N 50°44' W 001°05'4 4.3
2016-Nov-25 23:34N 50°49' W 001°06'0 0.0
2016-Nov-25 22:34N 50°49' W 001°06'1 0.6
2016-Nov-25 21:34N 50°48' W 001°07'7 7.5
2016-Nov-25 20:34N 50°43' W 000°59'2120.6
2016-Nov-25 19:33N 50°25' W 000°43'2121.5
2016-Nov-25 18:33N 50°05' W 000°28'2221.6
2016-Nov-25 17:33N 49°46' W 000°14'2120.6
2016-Nov-25 16:33N 49°29' E 000°05'1 1.4
2016-Nov-25 15:33N 49°29' E 000°07'0 0.0
2016-Nov-25 14:33N 49°29' E 000°07'0 0.0
2016-Nov-25 13:33N 49°29' E 000°07'0 0.0
2016-Nov-25 12:33N 49°29' E 000°07'0 0.0
2016-Nov-25 11:33N 49°29' E 000°07'0 0.0
2016-Nov-25 10:33N 49°29' E 000°07'  
Track history (hours):
 
Tides and Currents Weather Stations Pressure Air Temp Water Temp Dewpoint Dewpoint Depression Visibility Wind Speed Wind Dir Waves Ship Positions

Etretat

Last reported at 2016-Dec-05 10:33 UTC. Time now 2016-Dec-05 10:36 UTC.
Position N 49°29' E 000°07'.

Length 187 m; draft 6 m.

Type: Ship. MMSI: 228022900.

Date/timePositionNaut miles runAvg speedWind from/ knotsBaromVisibWave heightAir tempDewpointWater temp
2016-Dec-05 10:33N 49°29' E 000°07'0 0.0
2016-Dec-05 09:33N 49°29' E 000°07'0 0.0
2016-Dec-05 08:33N 49°29' E 000°07'0 0.0
2016-Dec-05 07:33N 49°29' E 000°07'9 9.2
2016-Dec-05 06:34N 49°36' W 000°03'3 3.4
2016-Dec-05 05:33N 49°39' W 000°03'10 9.7
2016-Dec-05 04:33N 49°47' W 000°11'1515.2
2016-Dec-05 03:33N 50°02' W 000°17'3115.3
2016-Dec-05 01:33N 50°27' W 000°45'1515.1
2016-Dec-05 00:33N 50°40' W 000°57'1010.4
2016-Dec-04 23:33N 50°49' W 001°06'0 0.1
2016-Dec-04 22:34N 50°49' W 001°06'1 0.7
2016-Dec-04 21:33N 50°48' W 001°07'9 9.0
2016-Dec-04 20:33N 50°42' W 000°58'1816.8
2016-Dec-04 19:28N 50°25' W 000°44'1819.3
2016-Dec-04 18:33N 50°10' W 000°30'1919.4
2016-Dec-04 17:33N 49°53' W 000°16'1919.3
2016-Dec-04 16:34N 49°36' W 000°03'9 9.3
2016-Dec-04 15:33N 49°29' E 000°07'0 0.0
2016-Dec-04 14:33N 49°29' E 000°07'0 0.0
2016-Dec-04 13:33N 49°29' E 000°07'0 0.0
2016-Dec-04 12:33N 49°29' E 000°07'0 0.0
2016-Dec-04 11:33N 49°29' E 000°07'0 0.0
2016-Dec-04 10:33N 49°29' E 000°07'0 0.0
2016-Dec-04 09:34N 49°29' E 000°07'0 0.0
2016-Dec-04 08:34N 49°29' E 000°07'0 0.0
2016-Dec-04 07:34N 49°29' E 000°07'9 8.6
2016-Dec-04 06:34N 49°36' W 000°02'4 4.5
2016-Dec-04 05:34N 49°40' W 000°03'10 9.6
2016-Dec-04 04:33N 49°47' W 000°13'1413.7
2016-Dec-04 03:33N 49°59' W 000°25'3314.0
2016-Dec-04 01:10N 50°28' W 000°48'914.6
2016-Dec-04 00:33N 50°37' W 000°54'1313.0
2016-Dec-03 23:34N 50°47' W 001°06'2 1.8
2016-Dec-03 22:34N 50°49' W 001°06'0 0.0
2016-Dec-03 21:33N 50°49' W 001°06'7 7.2
2016-Dec-03 20:33N 50°43' W 000°59'2019.2
2016-Dec-03 19:33N 50°26' W 000°43'2019.8
2016-Dec-03 18:33N 50°08' W 000°33'2020.5
2016-Dec-03 17:33N 49°50' W 000°17'2120.7
2016-Dec-03 16:33N 49°32' W 000°01'6 5.7
2016-Dec-03 15:33N 49°29' E 000°07'0 0.0
2016-Dec-03 14:33N 49°29' E 000°07'0 0.0
2016-Dec-03 13:33N 49°29' E 000°07'0 0.0
2016-Dec-03 12:33N 49°29' E 000°07'0 0.0
2016-Dec-03 11:33N 49°29' E 000°07'0 0.0
2016-Dec-03 10:33N 49°29' E 000°07'0 0.0
2016-Dec-03 09:33N 49°29' E 000°07'0 0.0
2016-Dec-03 08:33N 49°29' E 000°07'0 0.0
2016-Dec-03 07:33N 49°29' E 000°07'8 8.5
2016-Dec-03 06:33N 49°35' W 000°02'5 4.6
2016-Dec-03 05:33N 49°40' W 000°03'8 8.3
2016-Dec-03 04:33N 49°45' W 000°14'1515.0
2016-Dec-03 03:33N 49°58' W 000°24'3414.7
2016-Dec-03 01:14N 50°29' W 000°48'1015.0
2016-Dec-03 00:33N 50°38' W 000°55'1212.4
2016-Dec-02 23:34N 50°48' W 001°07'1 1.2
2016-Dec-02 22:33N 50°49' W 001°06'0 0.0
2016-Dec-02 21:33N 50°49' W 001°06'6 6.4
2016-Dec-02 20:34N 50°43' W 001°01'2018.9
2016-Dec-02 19:29N 50°25' W 000°46'1920.6
2016-Dec-02 18:33N 50°08' W 000°32'2020.4
2016-Dec-02 17:33N 49°50' W 000°19'2020.0
2016-Dec-02 16:33N 49°33' W 000°02'7 6.8
2016-Dec-02 15:33N 49°29' E 000°07'0 0.0
2016-Dec-02 14:33N 49°29' E 000°07'0 0.0
2016-Dec-02 13:33N 49°29' E 000°07'0 0.0
2016-Dec-02 12:33N 49°29' E 000°07'0 0.0
2016-Dec-02 11:33N 49°29' E 000°07'0 0.0
2016-Dec-02 10:33N 49°29' E 000°07'0 0.0
2016-Dec-02 09:33N 49°29' E 000°07'0 0.0
2016-Dec-02 08:33N 49°29' E 000°07'0 0.0
2016-Dec-02 07:33N 49°29' E 000°07'9 8.8
2016-Dec-02 06:34N 49°35' W 000°03'6 6.2
2016-Dec-02 05:34N 49°41' W 000°06'1212.2
2016-Dec-02 04:33N 49°51' W 000°18'1414.4
2016-Dec-02 03:33N 50°03' W 000°31'1813.9
2016-Dec-02 02:17N 50°17' W 000°46'1115.0
2016-Dec-02 01:34N 50°28' W 000°49'1414.2
2016-Dec-02 00:33N 50°41' W 000°58'9 9.2
2016-Dec-01 23:33N 50°49' W 001°06'0 0.2
2016-Dec-01 22:33N 50°49' W 001°06'0 0.0
2016-Dec-01 21:33N 50°49' W 001°06'8 7.8
2016-Dec-01 20:33N 50°42' W 000°58'2019.4
2016-Dec-01 19:32N 50°25' W 000°43'2020.3
2016-Dec-01 18:32N 50°07' W 000°28'2120.9
2016-Dec-01 17:34N 49°49' W 000°14'2120.7
2016-Dec-01 16:34N 49°31' E 000°01'4 3.9
2016-Dec-01 15:33N 49°29' E 000°07'0 0.0
2016-Dec-01 14:33N 49°29' E 000°07'0 0.0
2016-Dec-01 13:33N 49°29' E 000°07'0 0.0
2016-Dec-01 12:33N 49°29' E 000°07'0 0.0
2016-Dec-01 11:33N 49°29' E 000°07'0 0.0
2016-Dec-01 10:34N 49°29' E 000°07'0 0.0
2016-Dec-01 09:33N 49°29' E 000°07'0 0.0
2016-Dec-01 08:33N 49°29' E 000°07'0 0.0
2016-Dec-01 07:33N 49°29' E 000°07'8 8.5
2016-Dec-01 06:33N 49°36' W 000°01'1111.1
2016-Dec-01 05:33N 49°45' W 000°11'1110.9
2016-Dec-01 04:34N 49°55' W 000°17'1514.8
2016-Dec-01 03:33N 50°08' W 000°30'1514.9
2016-Dec-01 02:33N 50°21' W 000°42'1515.0
2016-Dec-01 01:34N 50°34' W 000°52'1413.5
2016-Dec-01 00:33N 50°45' W 001°05'4 4.1
2016-Nov-30 23:33N 50°49' W 001°06'0 0.0
2016-Nov-30 22:33N 50°49' W 001°06'0 0.0
2016-Nov-30 21:34N 50°49' W 001°06'8 7.7
2016-Nov-30 20:33N 50°43' W 000°59'1919.2
2016-Nov-30 19:34N 50°26' W 000°43'2120.7
2016-Nov-30 18:33N 50°08' W 000°27'2121.4
2016-Nov-30 17:33N 49°49' W 000°13'2120.9
2016-Nov-30 16:34N 49°30' E 000°01'4 3.6
2016-Nov-30 15:33N 49°29' E 000°07'0 0.0
2016-Nov-30 14:33N 49°29' E 000°07'0 0.0
2016-Nov-30 13:33N 49°29' E 000°07'0 0.0
2016-Nov-30 12:33N 49°29' E 000°07'0 0.0
2016-Nov-30 11:33N 49°29' E 000°07'0 0.0
2016-Nov-30 10:33N 49°29' E 000°07'0 0.0
2016-Nov-30 09:33N 49°29' E 000°07'0 0.0
2016-Nov-30 08:33N 49°29' E 000°07'0 0.0
2016-Nov-30 07:33N 49°29' E 000°07'8 8.1
2016-Nov-30 06:33N 49°35' W 000°02'7 6.6
2016-Nov-30 05:33N 49°40' W 000°08'6 6.4
2016-Nov-30 04:34N 49°46' W 000°11'1616.1
2016-Nov-30 03:33N 50°01' W 000°22'1615.6
2016-Nov-30 02:34N 50°14' W 000°35'1615.7
2016-Nov-30 01:33N 50°28' W 000°48'1515.5
2016-Nov-30 00:34N 50°42' W 000°58'9 8.8
2016-Nov-29 23:33N 50°49' W 001°06'0 0.1
2016-Nov-29 22:34N 50°49' W 001°06'0 0.0
2016-Nov-29 21:33N 50°49' W 001°06'6 6.3
2016-Nov-29 20:33N 50°43' W 001°01'2019.7
2016-Nov-29 19:33N 50°25' W 000°48'2121.0
2016-Nov-29 18:33N 50°06' W 000°34'2121.3
2016-Nov-29 17:33N 49°49' W 000°16'2020.5
2016-Nov-29 16:33N 49°31' E 000°01'4 4.4
2016-Nov-29 15:33N 49°29' E 000°07'0 0.0
2016-Nov-29 14:33N 49°29' E 000°07'0 0.0
2016-Nov-29 13:33N 49°29' E 000°07'0 0.0
2016-Nov-29 12:33N 49°29' E 000°07'0 0.0
2016-Nov-29 11:33N 49°29' E 000°07'0 0.0
2016-Nov-29 10:33N 49°29' E 000°07'0 0.0
2016-Nov-29 09:33N 49°29' E 000°07'0 0.0
2016-Nov-29 08:33N 49°29' E 000°07'0 0.0
2016-Nov-29 07:33N 49°29' E 000°07'8 8.5
2016-Nov-29 06:33N 49°34' W 000°04'1313.3
2016-Nov-29 05:33N 49°46' W 000°13'1413.6
2016-Nov-29 04:33N 49°58' W 000°22'1413.8
2016-Nov-29 03:33N 50°10' W 000°32'2014.0
2016-Nov-29 02:08N 50°28' W 000°47'814.0
2016-Nov-29 01:33N 50°35' W 000°53'1212.0
2016-Nov-29 00:33N 50°44' W 001°05'4 4.3
2016-Nov-28 23:33N 50°49' W 001°06'0 0.0
2016-Nov-28 22:33N 50°49' W 001°06'0 0.0
2016-Nov-28 21:33N 50°49' W 001°06'7 6.6
2016-Nov-28 20:33N 50°43' W 001°01'2019.9
2016-Nov-28 19:33N 50°25' W 000°48'2120.4
2016-Nov-28 18:32N 50°08' W 000°29'2020.6
2016-Nov-28 17:33N 49°50' W 000°14'2120.7
2016-Nov-28 16:33N 49°31' E 000°00'5 5.0
2016-Nov-28 15:33N 49°29' E 000°07'0 0.0
2016-Nov-28 14:33N 49°29' E 000°07'0 0.0
2016-Nov-28 13:33N 49°29' E 000°07'0 0.0
2016-Nov-28 12:33N 49°29' E 000°07'0 0.0
2016-Nov-28 11:33N 49°29' E 000°07'0 0.0
2016-Nov-28 10:33N 49°29' E 000°07'0 0.0
2016-Nov-28 09:33N 49°29' E 000°07'0 0.0
2016-Nov-28 08:33N 49°29' E 000°07'0 0.0
2016-Nov-28 07:33N 49°29' E 000°07'8 7.9
2016-Nov-28 06:34N 49°34' W 000°03'1110.9
2016-Nov-28 05:33N 49°44' W 000°10'1111.3
2016-Nov-28 04:33N 49°54' W 000°19'1110.9
2016-Nov-28 03:33N 50°03' W 000°28'2814.2
2016-Nov-28 01:33N 50°28' W 000°49'1414.4
2016-Nov-28 00:33N 50°41' W 000°57'9 8.6
2016-Nov-27 23:33N 50°47' W 001°07'1 1.3
2016-Nov-27 22:33N 50°49' W 001°06'0 0.1
2016-Nov-27 21:33N 50°49' W 001°06'7 6.7
2016-Nov-27 20:33N 50°43' W 001°00'4019.3
2016-Nov-27 18:29N 50°08' W 000°30'1819.7
2016-Nov-27 17:34N 49°52' W 000°17'2020.0
2016-Nov-27 16:33N 49°34' W 000°02'8 7.7
2016-Nov-27 15:33N 49°29' E 000°07'0 0.0
2016-Nov-27 14:33N 49°29' E 000°07'0 0.0
2016-Nov-27 13:33N 49°29' E 000°07'0 0.0
2016-Nov-27 12:33N 49°29' E 000°07'0 0.0
2016-Nov-27 11:33N 49°29' E 000°07'0 0.0
2016-Nov-27 10:33N 49°29' E 000°07'0 0.0
2016-Nov-27 09:33N 49°29' E 000°07'0 0.0
2016-Nov-27 08:33N 49°29' E 000°07'0 0.0
2016-Nov-27 07:33N 49°29' E 000°07'9 8.7
2016-Nov-27 06:33N 49°35' W 000°03'1414.4
2016-Nov-27 05:33N 49°48' W 000°14'1514.7
2016-Nov-27 04:33N 49°59' W 000°28'1414.4
2016-Nov-27 03:33N 50°11' W 000°41'1914.1
2016-Nov-27 02:12N 50°29' W 000°50'914.2
2016-Nov-27 01:34N 50°38' W 000°55'1212.3
2016-Nov-27 00:33N 50°48' W 001°07'1 1.2
2016-Nov-26 23:34N 50°49' W 001°06'0 0.0
2016-Nov-26 22:34N 50°49' W 001°06'0 0.0
2016-Nov-26 21:33N 50°49' W 001°06'5 4.9
2016-Nov-26 20:34N 50°44' W 001°03'2321.0
2016-Nov-26 19:27N 50°25' W 000°41'1920.3
2016-Nov-26 18:29N 50°08' W 000°27'1920.4
2016-Nov-26 17:34N 49°51' W 000°14'2120.6
2016-Nov-26 16:34N 49°32' W 000°01'6 5.7
2016-Nov-26 15:33N 49°29' E 000°07'0 0.0
2016-Nov-26 14:33N 49°29' E 000°07'0 0.0
2016-Nov-26 13:33N 49°29' E 000°07'0 0.0
2016-Nov-26 12:33N 49°29' E 000°07'0 0.0
2016-Nov-26 11:33N 49°29' E 000°07'0 0.0
2016-Nov-26 10:33N 49°29' E 000°07'0 0.0
2016-Nov-26 09:33N 49°29' E 000°07'0 0.0
2016-Nov-26 08:33N 49°29' E 000°07'0 0.0
2016-Nov-26 07:33N 49°29' E 000°07'8 8.5
2016-Nov-26 06:33N 49°35' W 000°03'1313.2
2016-Nov-26 05:33N 49°47' W 000°12'1413.9
2016-Nov-26 04:33N 49°58' W 000°23'1413.5
2016-Nov-26 03:33N 50°10' W 000°35'2013.4
2016-Nov-26 02:05N 50°28' W 000°47'713.6
2016-Nov-26 01:33N 50°34' W 000°52'1313.0
2016-Nov-26 00:34N 50°44' W 001°05'4 4.3
2016-Nov-25 23:34N 50°49' W 001°06'0 0.0
2016-Nov-25 22:34N 50°49' W 001°06'1 0.6
2016-Nov-25 21:34N 50°48' W 001°07'7 7.5
2016-Nov-25 20:34N 50°43' W 000°59'2120.6
2016-Nov-25 19:33N 50°25' W 000°43'2121.5
2016-Nov-25 18:33N 50°05' W 000°28'2221.6
2016-Nov-25 17:33N 49°46' W 000°14'2120.6
2016-Nov-25 16:33N 49°29' E 000°05'1 1.4
2016-Nov-25 15:33N 49°29' E 000°07'0 0.0
2016-Nov-25 14:33N 49°29' E 000°07'0 0.0
2016-Nov-25 13:33N 49°29' E 000°07'0 0.0
2016-Nov-25 12:33N 49°29' E 000°07'0 0.0
2016-Nov-25 11:33N 49°29' E 000°07'0 0.0
2016-Nov-25 10:33N 49°29' E 000°07'  

Dump ship's entire track history